SWA893 KLAS-KSAT
Flight info
| Callsign | SWA893 |
|---|---|
| Flight time | 2h 15m |
| Altitude | 35000 |
| Route | NIITZ4 SSKEE INW J86 FST MOPPP DNKIN2 |
| Aircraft | B738/M-SDE2E3FGHIRWXY/LB1 |
Departure
| Time | 2026-05-07 00:23 |
|---|---|
| Airport | Harry Reid International Airport (KLAS) |
Arrival
| Time | 2026-05-07 02:38 |
|---|---|
| Airport | San Antonio International Airport (KSAT) |
| Time | Latitude | Longitude | Altitude | Speed | Heading |
|---|---|---|---|---|---|
| 2026-05-06 23:58 | 36.08334 | -115.15274 | 2187 ft | 0 kts | 179° |
| 2026-05-07 00:08 | 36.08352 | -115.15275 | 2189 ft | 3 kts | 179° |
| 2026-05-07 00:09 | 36.08369 | -115.15271 | 2189 ft | 2 kts | 227° |
| 2026-05-07 00:09 | 36.08381 | -115.15261 | 2188 ft | 0 kts | 175° |
| 2026-05-07 00:10 | 36.08380 | -115.15262 | 2188 ft | 0 kts | 179° |
| 2026-05-07 00:10 | 36.08377 | -115.15265 | 2189 ft | 1 kts | 223° |
| 2026-05-07 00:10 | 36.08379 | -115.15272 | 2190 ft | 1 kts | 277° |
| 2026-05-07 00:10 | 36.08380 | -115.15287 | 2188 ft | 2 kts | 277° |
| 2026-05-07 00:11 | 36.08382 | -115.15310 | 2187 ft | 3 kts | 277° |
| 2026-05-07 00:11 | 36.08385 | -115.15337 | 2187 ft | 3 kts | 277° |
| 2026-05-07 00:11 | 36.08389 | -115.15373 | 2189 ft | 6 kts | 277° |
| 2026-05-07 00:11 | 36.08388 | -115.15409 | 2190 ft | 7 kts | 256° |
| 2026-05-07 00:12 | 36.08364 | -115.15477 | 2187 ft | 6 kts | 245° |
| 2026-05-07 00:12 | 36.08351 | -115.15510 | 2187 ft | 6 kts | 245° |
| 2026-05-07 00:12 | 36.08330 | -115.15557 | 2189 ft | 6 kts | 228° |
| 2026-05-07 00:12 | 36.08290 | -115.15570 | 2190 ft | 6 kts | 170° |
| 2026-05-07 00:13 | 36.08247 | -115.15548 | 2189 ft | 7 kts | 156° |
| 2026-05-07 00:13 | 36.08200 | -115.15522 | 2188 ft | 8 kts | 155° |
| 2026-05-07 00:13 | 36.08131 | -115.15480 | 2189 ft | 9 kts | 155° |
| 2026-05-07 00:13 | 36.08089 | -115.15456 | 2190 ft | 9 kts | 155° |
| 2026-05-07 00:14 | 36.08052 | -115.15435 | 2189 ft | 10 kts | 155° |
| 2026-05-07 00:14 | 36.07988 | -115.15397 | 2189 ft | 11 kts | 154° |
| 2026-05-07 00:14 | 36.07917 | -115.15355 | 2187 ft | 12 kts | 154° |
| 2026-05-07 00:14 | 36.07840 | -115.15309 | 2191 ft | 12 kts | 149° |
| 2026-05-07 00:15 | 36.07805 | -115.15222 | 2187 ft | 12 kts | 91° |
| 2026-05-07 00:15 | 36.07804 | -115.15122 | 2187 ft | 11 kts | 91° |
| 2026-05-07 00:15 | 36.07799 | -115.15025 | 2191 ft | 11 kts | 95° |
| 2026-05-07 00:15 | 36.07793 | -115.14931 | 2188 ft | 11 kts | 95° |
| 2026-05-07 00:16 | 36.07787 | -115.14840 | 2187 ft | 11 kts | 95° |
| 2026-05-07 00:16 | 36.07780 | -115.14745 | 2187 ft | 12 kts | 95° |
| 2026-05-07 00:16 | 36.07774 | -115.14643 | 2190 ft | 12 kts | 95° |
| 2026-05-07 00:16 | 36.07767 | -115.14538 | 2188 ft | 12 kts | 95° |
| 2026-05-07 00:17 | 36.07760 | -115.14435 | 2189 ft | 12 kts | 95° |
| 2026-05-07 00:17 | 36.07754 | -115.14335 | 2187 ft | 12 kts | 93° |
| 2026-05-07 00:17 | 36.07755 | -115.14233 | 2187 ft | 12 kts | 89° |
| 2026-05-07 00:17 | 36.07756 | -115.14132 | 2187 ft | 12 kts | 89° |
| 2026-05-07 00:18 | 36.07755 | -115.14034 | 2187 ft | 11 kts | 91° |
| 2026-05-07 00:18 | 36.07754 | -115.13938 | 2188 ft | 11 kts | 91° |
| 2026-05-07 00:18 | 36.07753 | -115.13845 | 2188 ft | 11 kts | 90° |
| 2026-05-07 00:18 | 36.07754 | -115.13755 | 2188 ft | 10 kts | 88° |
| 2026-05-07 00:19 | 36.07755 | -115.13667 | 2188 ft | 10 kts | 91° |
| 2026-05-07 00:19 | 36.07754 | -115.13582 | 2188 ft | 10 kts | 90° |
| 2026-05-07 00:19 | 36.07755 | -115.13499 | 2189 ft | 10 kts | 89° |
| 2026-05-07 00:19 | 36.07756 | -115.13410 | 2189 ft | 11 kts | 89° |
| 2026-05-07 00:20 | 36.07755 | -115.13308 | 2188 ft | 13 kts | 91° |
| 2026-05-07 00:20 | 36.07753 | -115.13192 | 2188 ft | 14 kts | 90° |
| 2026-05-07 00:20 | 36.07753 | -115.13063 | 2188 ft | 15 kts | 89° |
| 2026-05-07 00:20 | 36.07754 | -115.12934 | 2187 ft | 15 kts | 90° |
| 2026-05-07 00:21 | 36.07755 | -115.12808 | 2187 ft | 15 kts | 89° |
| 2026-05-07 00:21 | 36.07755 | -115.12680 | 2186 ft | 15 kts | 90° |
| 2026-05-07 00:21 | 36.07713 | -115.12600 | 2191 ft | 12 kts | 167° |
| 2026-05-07 00:21 | 36.07646 | -115.12638 | 2188 ft | 12 kts | 250° |
| 2026-05-07 00:22 | 36.07642 | -115.12737 | 2188 ft | 12 kts | 269° |
| 2026-05-07 00:22 | 36.07641 | -115.13088 | 2192 ft | 76 kts | 270° |
| 2026-05-07 00:22 | 36.07639 | -115.14019 | 2188 ft | 139 kts | 270° |
| 2026-05-07 00:22 | 36.07641 | -115.15428 | 2302 ft | 182 kts | 270° |
| 2026-05-07 00:23 | 36.07664 | -115.17020 | 2938 ft | 189 kts | 271° |
| 2026-05-07 00:23 | 36.07687 | -115.18645 | 3742 ft | 187 kts | 271° |
| 2026-05-07 00:23 | 36.07693 | -115.20312 | 4333 ft | 202 kts | 267° |
| 2026-05-07 00:23 | 36.07462 | -115.22097 | 4782 ft | 219 kts | 258° |
| 2026-05-07 00:24 | 36.07117 | -115.23996 | 5178 ft | 234 kts | 255° |
| 2026-05-07 00:24 | 36.06268 | -115.25750 | 5696 ft | 249 kts | 224° |
| 2026-05-07 00:24 | 36.04733 | -115.26944 | 5986 ft | 275 kts | 201° |
| 2026-05-07 00:24 | 36.02897 | -115.27780 | 6596 ft | 285 kts | 200° |
| 2026-05-07 00:25 | 36.01000 | -115.28560 | 7360 ft | 291 kts | 192° |
| 2026-05-07 00:25 | 35.98984 | -115.28494 | 7809 ft | 293 kts | 160° |
| 2026-05-07 00:25 | 35.97222 | -115.27298 | 8455 ft | 298 kts | 140° |
| 2026-05-07 00:25 | 35.95657 | -115.25594 | 9197 ft | 303 kts | 135° |
| 2026-05-07 00:26 | 35.94092 | -115.23816 | 9978 ft | 308 kts | 135° |
| 2026-05-07 00:26 | 35.92477 | -115.22006 | 10488 ft | 323 kts | 135° |
| 2026-05-07 00:26 | 35.90877 | -115.19938 | 10643 ft | 344 kts | 121° |
| 2026-05-07 00:26 | 35.89652 | -115.17338 | 11097 ft | 355 kts | 116° |
| 2026-05-07 00:27 | 35.88434 | -115.14687 | 11909 ft | 356 kts | 117° |
| 2026-05-07 00:27 | 35.87229 | -115.12032 | 12748 ft | 353 kts | 110° |
| 2026-05-07 00:27 | 35.86664 | -115.09128 | 13488 ft | 348 kts | 89° |
| 2026-05-07 00:27 | 35.86740 | -115.06152 | 14226 ft | 348 kts | 83° |
| 2026-05-07 00:28 | 35.86916 | -115.03166 | 14896 ft | 351 kts | 82° |
| 2026-05-07 00:28 | 35.87114 | -115.00146 | 15506 ft | 355 kts | 82° |
| 2026-05-07 00:28 | 35.87310 | -114.97098 | 16153 ft | 359 kts | 82° |
| 2026-05-07 00:28 | 35.87499 | -114.94012 | 16777 ft | 363 kts | 82° |
| 2026-05-07 00:29 | 35.87681 | -114.90895 | 17391 ft | 367 kts | 83° |
| 2026-05-07 00:29 | 35.87858 | -114.87739 | 18013 ft | 371 kts | 83° |
| 2026-05-07 00:30 | 35.88379 | -114.78097 | 19727 ft | 379 kts | 83° |
| 2026-05-07 00:30 | 35.88551 | -114.74847 | 20304 ft | 381 kts | 83° |
| 2026-05-07 00:30 | 35.88724 | -114.71571 | 20834 ft | 384 kts | 83° |
| 2026-05-07 00:30 | 35.88897 | -114.68274 | 21384 ft | 387 kts | 83° |
| 2026-05-07 00:31 | 35.89071 | -114.64955 | 21929 ft | 389 kts | 83° |
| 2026-05-07 00:31 | 35.89245 | -114.61612 | 22436 ft | 391 kts | 83° |
| 2026-05-07 00:31 | 35.89420 | -114.58249 | 22921 ft | 395 kts | 83° |
| 2026-05-07 00:31 | 35.89594 | -114.54863 | 23423 ft | 397 kts | 83° |
| 2026-05-07 00:32 | 35.89751 | -114.51447 | 23848 ft | 400 kts | 84° |
| 2026-05-07 00:32 | 35.89789 | -114.48002 | 24266 ft | 403 kts | 86° |
| 2026-05-07 00:32 | 35.89762 | -114.44537 | 24675 ft | 406 kts | 87° |
| 2026-05-07 00:32 | 35.89717 | -114.41047 | 25083 ft | 408 kts | 87° |
| 2026-05-07 00:33 | 35.89671 | -114.37537 | 25512 ft | 410 kts | 87° |
| 2026-05-07 00:33 | 35.89633 | -114.34014 | 25885 ft | 412 kts | 86° |
| 2026-05-07 00:33 | 35.89600 | -114.30466 | 26243 ft | 415 kts | 86° |
| 2026-05-07 00:33 | 35.89572 | -114.26898 | 26643 ft | 417 kts | 86° |
| 2026-05-07 00:34 | 35.89546 | -114.23319 | 27052 ft | 418 kts | 86° |
| 2026-05-07 00:34 | 35.89521 | -114.19718 | 27431 ft | 421 kts | 86° |
| 2026-05-07 00:34 | 35.89496 | -114.16103 | 27794 ft | 423 kts | 86° |
| 2026-05-07 00:34 | 35.89469 | -114.12466 | 28151 ft | 425 kts | 86° |
| 2026-05-07 00:35 | 35.89441 | -114.08814 | 28495 ft | 427 kts | 86° |
| 2026-05-07 00:35 | 35.89412 | -114.05140 | 28859 ft | 429 kts | 86° |
| 2026-05-07 00:35 | 35.89381 | -114.01453 | 29196 ft | 431 kts | 86° |
| 2026-05-07 00:35 | 35.89350 | -113.97795 | 29527 ft | 433 kts | 86° |
| 2026-05-07 00:36 | 35.89316 | -113.94071 | 29827 ft | 436 kts | 86° |
| 2026-05-07 00:36 | 35.89281 | -113.90331 | 30130 ft | 437 kts | 86° |
| 2026-05-07 00:36 | 35.89244 | -113.86574 | 30414 ft | 438 kts | 86° |
| 2026-05-07 00:36 | 35.89207 | -113.82815 | 30744 ft | 438 kts | 86° |
| 2026-05-07 00:37 | 35.89169 | -113.79067 | 31116 ft | 437 kts | 86° |
| 2026-05-07 00:37 | 35.89129 | -113.75330 | 31516 ft | 435 kts | 86° |
| 2026-05-07 00:37 | 35.89088 | -113.71624 | 32192 ft | 429 kts | 86° |
| 2026-05-07 00:37 | 35.89046 | -113.67951 | 32561 ft | 429 kts | 85° |
| 2026-05-07 00:38 | 35.89006 | -113.64262 | 32848 ft | 431 kts | 86° |
| 2026-05-07 00:38 | 35.88963 | -113.60561 | 33144 ft | 431 kts | 86° |
| 2026-05-07 00:38 | 35.88917 | -113.56876 | 33408 ft | 429 kts | 85° |
| 2026-05-07 00:38 | 35.88861 | -113.53194 | 33663 ft | 431 kts | 88° |
| 2026-05-07 00:39 | 35.88529 | -113.49503 | 33912 ft | 435 kts | 94° |
| 2026-05-07 00:39 | 35.88001 | -113.45821 | 34164 ft | 436 kts | 95° |
| 2026-05-07 00:39 | 35.87416 | -113.42146 | 34363 ft | 437 kts | 96° |
| 2026-05-07 00:39 | 35.86825 | -113.38455 | 34467 ft | 441 kts | 96° |
| 2026-05-07 00:40 | 35.86246 | -113.34738 | 34669 ft | 442 kts | 95° |
| 2026-05-07 00:40 | 35.85684 | -113.31027 | 34952 ft | 440 kts | 95° |
| 2026-05-07 00:40 | 35.84588 | -113.23572 | 34978 ft | 441 kts | 95° |
| 2026-05-07 00:41 | 35.83511 | -113.16174 | 34974 ft | 435 kts | 95° |
| 2026-05-07 00:41 | 35.82445 | -113.08851 | 34998 ft | 434 kts | 95° |
| 2026-05-07 00:42 | 35.81375 | -113.01535 | 34995 ft | 434 kts | 95° |
| 2026-05-07 00:42 | 35.80306 | -112.94276 | 35005 ft | 434 kts | 95° |
| 2026-05-07 00:43 | 35.79225 | -112.86960 | 35003 ft | 435 kts | 95° |
| 2026-05-07 00:43 | 35.78136 | -112.79628 | 35012 ft | 436 kts | 95° |
| 2026-05-07 00:44 | 35.77042 | -112.72284 | 35018 ft | 437 kts | 95° |
| 2026-05-07 00:44 | 35.75938 | -112.64915 | 35015 ft | 438 kts | 95° |
| 2026-05-07 00:45 | 35.74831 | -112.57539 | 35030 ft | 439 kts | 95° |
| 2026-05-07 00:45 | 35.73719 | -112.50148 | 35019 ft | 439 kts | 95° |
| 2026-05-07 00:46 | 35.72601 | -112.42755 | 35020 ft | 440 kts | 95° |
| 2026-05-07 00:46 | 35.71478 | -112.35359 | 35004 ft | 439 kts | 95° |
| 2026-05-07 00:47 | 35.70352 | -112.27972 | 35002 ft | 439 kts | 95° |
| 2026-05-07 00:47 | 35.69223 | -112.20597 | 34992 ft | 439 kts | 95° |
| 2026-05-07 00:48 | 35.68090 | -112.13230 | 34995 ft | 438 kts | 95° |
| 2026-05-07 00:48 | 35.66953 | -112.05863 | 34987 ft | 438 kts | 96° |
| 2026-05-07 00:49 | 35.65811 | -111.98496 | 34994 ft | 438 kts | 96° |
| 2026-05-07 00:49 | 35.64667 | -111.91142 | 35000 ft | 438 kts | 96° |
| 2026-05-07 00:50 | 35.63492 | -111.83786 | 34991 ft | 440 kts | 100° |
| 2026-05-07 00:50 | 35.62300 | -111.80285 | 34997 ft | 452 kts | 117° |
| 2026-05-07 00:50 | 35.60550 | -111.77069 | 34986 ft | 454 kts | 120° |
| 2026-05-07 00:51 | 35.56952 | -111.70685 | 34988 ft | 455 kts | 120° |
| 2026-05-07 00:51 | 35.53371 | -111.64283 | 34976 ft | 455 kts | 119° |
| 2026-05-07 00:52 | 35.49823 | -111.57864 | 34988 ft | 454 kts | 119° |
| 2026-05-07 00:52 | 35.46306 | -111.51480 | 34969 ft | 455 kts | 119° |
| 2026-05-07 00:53 | 35.42760 | -111.45053 | 34969 ft | 455 kts | 119° |
| 2026-05-07 00:53 | 35.39205 | -111.38624 | 34944 ft | 455 kts | 119° |
| 2026-05-07 00:54 | 35.35649 | -111.32206 | 34952 ft | 455 kts | 119° |
| 2026-05-07 00:54 | 35.32088 | -111.25793 | 34928 ft | 455 kts | 119° |
| 2026-05-07 00:55 | 35.28533 | -111.19402 | 34944 ft | 454 kts | 119° |
| 2026-05-07 00:55 | 35.24979 | -111.13024 | 34931 ft | 453 kts | 120° |
| 2026-05-07 00:56 | 35.21427 | -111.06660 | 34932 ft | 452 kts | 120° |
| 2026-05-07 00:56 | 35.17880 | -111.00315 | 34914 ft | 452 kts | 120° |
| 2026-05-07 00:57 | 35.14333 | -110.93983 | 34993 ft | 451 kts | 120° |
| 2026-05-07 00:57 | 35.10790 | -110.87668 | 35026 ft | 450 kts | 120° |
| 2026-05-07 00:58 | 35.07248 | -110.81366 | 35055 ft | 450 kts | 120° |
| 2026-05-07 00:58 | 35.03473 | -110.75256 | 35058 ft | 452 kts | 125° |
| 2026-05-07 00:59 | 34.97396 | -110.66429 | 35056 ft | 453 kts | 126° |
| 2026-05-07 01:00 | 34.93371 | -110.60512 | 34927 ft | 453 kts | 126° |
| 2026-05-07 01:00 | 34.90041 | -110.55588 | 34935 ft | 453 kts | 127° |
| 2026-05-07 01:01 | 34.86019 | -110.49659 | 34946 ft | 454 kts | 127° |
| 2026-05-07 01:01 | 34.81986 | -110.43742 | 34935 ft | 455 kts | 127° |
| 2026-05-07 01:02 | 34.77939 | -110.37816 | 34948 ft | 456 kts | 127° |
| 2026-05-07 01:02 | 34.73881 | -110.31879 | 34922 ft | 457 kts | 129° |
| 2026-05-07 01:03 | 34.69807 | -110.25930 | 34939 ft | 459 kts | 129° |
| 2026-05-07 01:03 | 34.65710 | -110.19955 | 34946 ft | 461 kts | 129° |
| 2026-05-07 01:04 | 34.61585 | -110.13951 | 34956 ft | 464 kts | 129° |
| 2026-05-07 01:04 | 34.57431 | -110.07912 | 34957 ft | 467 kts | 130° |
| 2026-05-07 01:05 | 34.53276 | -110.01883 | 34949 ft | 470 kts | 131° |
| 2026-05-07 01:05 | 34.49069 | -109.95791 | 34956 ft | 472 kts | 131° |
| 2026-05-07 01:06 | 34.44853 | -109.89696 | 35069 ft | 472 kts | 131° |
| 2026-05-07 01:06 | 34.40630 | -109.83600 | 35077 ft | 472 kts | 131° |
| 2026-05-07 01:07 | 34.36411 | -109.77520 | 35059 ft | 471 kts | 132° |
| 2026-05-07 01:07 | 34.32195 | -109.71454 | 35049 ft | 470 kts | 132° |
| 2026-05-07 01:08 | 34.27990 | -109.65414 | 34993 ft | 469 kts | 132° |
| 2026-05-07 01:08 | 34.23849 | -109.59316 | 35054 ft | 470 kts | 129° |
| 2026-05-07 01:09 | 34.19943 | -109.53000 | 35101 ft | 469 kts | 129° |
| 2026-05-07 01:09 | 34.15997 | -109.46733 | 35139 ft | 468 kts | 132° |
| 2026-05-07 01:10 | 34.11837 | -109.40712 | 35182 ft | 467 kts | 135° |
| 2026-05-07 01:10 | 34.07566 | -109.34805 | 35194 ft | 468 kts | 136° |
| 2026-05-07 01:11 | 34.03286 | -109.28866 | 35181 ft | 470 kts | 135° |
| 2026-05-07 01:11 | 33.99001 | -109.22876 | 35140 ft | 473 kts | 135° |
| 2026-05-07 01:12 | 33.94706 | -109.16859 | 35083 ft | 474 kts | 137° |
| 2026-05-07 01:12 | 33.90392 | -109.10824 | 35044 ft | 477 kts | 137° |
| 2026-05-07 01:13 | 33.86056 | -109.04772 | 34991 ft | 478 kts | 137° |
| 2026-05-07 01:13 | 33.81706 | -108.98711 | 34977 ft | 480 kts | 137° |
| 2026-05-07 01:14 | 33.77332 | -108.92628 | 34965 ft | 481 kts | 137° |
| 2026-05-07 01:14 | 33.72950 | -108.86542 | 34942 ft | 482 kts | 139° |
| 2026-05-07 01:15 | 33.68564 | -108.80460 | 34957 ft | 481 kts | 139° |
| 2026-05-07 01:15 | 33.64179 | -108.74392 | 34957 ft | 481 kts | 140° |
| 2026-05-07 01:16 | 33.59822 | -108.68374 | 34965 ft | 481 kts | 140° |
| 2026-05-07 01:16 | 33.55431 | -108.62318 | 34938 ft | 481 kts | 141° |
| 2026-05-07 01:17 | 33.51035 | -108.56268 | 34949 ft | 482 kts | 141° |
| 2026-05-07 01:17 | 33.46637 | -108.50221 | 34959 ft | 481 kts | 141° |
| 2026-05-07 01:18 | 33.42236 | -108.44181 | 34957 ft | 481 kts | 141° |
| 2026-05-07 01:18 | 33.37836 | -108.38152 | 34954 ft | 481 kts | 142° |
| 2026-05-07 01:19 | 33.33432 | -108.32130 | 34940 ft | 481 kts | 143° |
| 2026-05-07 01:19 | 33.29030 | -108.26118 | 34949 ft | 480 kts | 143° |
| 2026-05-07 01:20 | 33.24626 | -108.20113 | 34953 ft | 481 kts | 143° |
| 2026-05-07 01:20 | 33.20220 | -108.14109 | 34941 ft | 481 kts | 142° |
| 2026-05-07 01:21 | 33.15835 | -108.08085 | 34954 ft | 480 kts | 142° |
| 2026-05-07 01:21 | 33.11466 | -108.02077 | 34943 ft | 478 kts | 143° |
| 2026-05-07 01:22 | 33.07103 | -107.96093 | 34948 ft | 478 kts | 143° |
| 2026-05-07 01:22 | 33.02741 | -107.90127 | 34945 ft | 477 kts | 143° |
| 2026-05-07 01:23 | 32.98384 | -107.84177 | 34941 ft | 476 kts | 143° |
| 2026-05-07 01:23 | 32.94025 | -107.78237 | 34951 ft | 476 kts | 143° |
| 2026-05-07 01:24 | 32.89670 | -107.72308 | 34900 ft | 474 kts | 143° |
| 2026-05-07 01:24 | 32.85326 | -107.66402 | 34919 ft | 474 kts | 143° |
| 2026-05-07 01:25 | 32.80978 | -107.60506 | 34904 ft | 475 kts | 143° |
| 2026-05-07 01:25 | 32.76615 | -107.54599 | 34898 ft | 476 kts | 143° |
| 2026-05-07 01:26 | 32.72247 | -107.48690 | 34902 ft | 476 kts | 143° |
| 2026-05-07 01:26 | 32.67876 | -107.42787 | 34884 ft | 476 kts | 143° |
| 2026-05-07 01:27 | 32.63504 | -107.36893 | 34887 ft | 476 kts | 143° |
| 2026-05-07 01:27 | 32.59124 | -107.30998 | 34883 ft | 476 kts | 143° |
| 2026-05-07 01:28 | 32.54769 | -107.25146 | 34890 ft | 477 kts | 143° |
| 2026-05-07 01:28 | 32.50370 | -107.19245 | 34899 ft | 478 kts | 143° |
| 2026-05-07 01:29 | 32.45959 | -107.13337 | 34874 ft | 478 kts | 143° |
| 2026-05-07 01:29 | 32.41551 | -107.07438 | 34883 ft | 478 kts | 143° |
| 2026-05-07 01:30 | 32.37148 | -107.01558 | 34884 ft | 478 kts | 144° |
| 2026-05-07 01:30 | 32.32741 | -106.95681 | 35064 ft | 477 kts | 144° |
| 2026-05-07 01:31 | 32.28336 | -106.89818 | 35063 ft | 476 kts | 144° |
| 2026-05-07 01:31 | 32.26136 | -106.86893 | 34877 ft | 476 kts | 144° |
| 2026-05-07 01:31 | 32.23936 | -106.83974 | 34880 ft | 475 kts | 144° |
| 2026-05-07 01:32 | 32.19541 | -106.78149 | 34908 ft | 475 kts | 144° |
| 2026-05-07 01:32 | 32.15152 | -106.72338 | 34938 ft | 474 kts | 144° |
| 2026-05-07 01:33 | 32.10762 | -106.66534 | 34964 ft | 474 kts | 144° |
| 2026-05-07 01:33 | 32.06370 | -106.60737 | 34989 ft | 474 kts | 144° |
| 2026-05-07 01:34 | 32.01979 | -106.54949 | 34988 ft | 474 kts | 144° |
| 2026-05-07 01:34 | 31.97580 | -106.49161 | 34986 ft | 474 kts | 145° |
| 2026-05-07 01:35 | 31.93194 | -106.43395 | 35033 ft | 472 kts | 145° |
| 2026-05-07 01:35 | 31.88808 | -106.37640 | 35033 ft | 472 kts | 145° |
| 2026-05-07 01:36 | 31.84413 | -106.31876 | 35023 ft | 475 kts | 143° |
| 2026-05-07 01:36 | 31.82414 | -106.28703 | 34971 ft | 492 kts | 133° |
| 2026-05-07 01:36 | 31.80806 | -106.25102 | 35008 ft | 503 kts | 124° |
| 2026-05-07 01:37 | 31.78689 | -106.17167 | 34962 ft | 510 kts | 116° |
| 2026-05-07 01:37 | 31.76824 | -106.09121 | 34923 ft | 510 kts | 116° |
| 2026-05-07 01:38 | 31.74916 | -106.01159 | 34881 ft | 509 kts | 116° |
| 2026-05-07 01:38 | 31.72934 | -105.93165 | 34865 ft | 510 kts | 117° |
| 2026-05-07 01:39 | 31.70929 | -105.85158 | 34866 ft | 511 kts | 117° |
| 2026-05-07 01:39 | 31.68915 | -105.77128 | 34871 ft | 514 kts | 117° |
| 2026-05-07 01:40 | 31.66891 | -105.69059 | 34868 ft | 516 kts | 117° |
| 2026-05-07 01:40 | 31.64852 | -105.60955 | 34841 ft | 519 kts | 117° |
| 2026-05-07 01:41 | 31.62801 | -105.52821 | 34862 ft | 521 kts | 117° |
| 2026-05-07 01:41 | 31.60738 | -105.44663 | 34867 ft | 522 kts | 117° |
| 2026-05-07 01:42 | 31.58664 | -105.36489 | 34865 ft | 524 kts | 117° |
| 2026-05-07 01:42 | 31.56575 | -105.28304 | 34842 ft | 524 kts | 117° |
| 2026-05-07 01:43 | 31.54484 | -105.20131 | 34873 ft | 523 kts | 117° |
| 2026-05-07 01:43 | 31.52389 | -105.11968 | 34871 ft | 522 kts | 117° |
| 2026-05-07 01:44 | 31.50295 | -105.03826 | 34877 ft | 521 kts | 117° |
| 2026-05-07 01:44 | 31.48200 | -104.95704 | 34872 ft | 520 kts | 117° |
| 2026-05-07 01:45 | 31.46113 | -104.87631 | 34858 ft | 515 kts | 117° |
| 2026-05-07 01:45 | 31.44035 | -104.79621 | 34879 ft | 513 kts | 117° |
| 2026-05-07 01:46 | 31.41953 | -104.71627 | 34874 ft | 513 kts | 117° |
| 2026-05-07 01:46 | 31.39866 | -104.63640 | 34887 ft | 513 kts | 117° |
| 2026-05-07 01:47 | 31.38127 | -104.56999 | 34874 ft | 513 kts | 117° |
| 2026-05-07 01:47 | 31.35691 | -104.47715 | 34868 ft | 514 kts | 117° |
| 2026-05-07 01:48 | 31.33588 | -104.39723 | 34887 ft | 514 kts | 117° |
| 2026-05-07 01:48 | 31.31475 | -104.31721 | 34869 ft | 515 kts | 117° |
| 2026-05-07 01:49 | 31.29702 | -104.25016 | 34868 ft | 515 kts | 118° |
| 2026-05-07 01:49 | 31.27581 | -104.17021 | 34813 ft | 515 kts | 117° |
| 2026-05-07 01:50 | 31.25461 | -104.09044 | 34870 ft | 513 kts | 117° |
| 2026-05-07 01:50 | 31.23350 | -104.01134 | 34862 ft | 513 kts | 117° |
| 2026-05-07 01:51 | 31.21220 | -103.93175 | 34864 ft | 514 kts | 117° |
| 2026-05-07 01:51 | 31.19084 | -103.85213 | 34876 ft | 514 kts | 118° |
| 2026-05-07 01:52 | 31.16941 | -103.77247 | 34868 ft | 514 kts | 118° |
| 2026-05-07 01:52 | 31.14793 | -103.69281 | 34875 ft | 514 kts | 118° |
| 2026-05-07 01:53 | 31.12641 | -103.61320 | 34880 ft | 514 kts | 118° |
| 2026-05-07 01:53 | 31.10483 | -103.53362 | 34876 ft | 514 kts | 118° |
| 2026-05-07 01:54 | 31.08319 | -103.45404 | 34809 ft | 515 kts | 118° |
| 2026-05-07 01:54 | 31.06153 | -103.37459 | 34836 ft | 514 kts | 118° |
| 2026-05-07 01:55 | 31.03981 | -103.29514 | 34839 ft | 514 kts | 118° |
| 2026-05-07 01:55 | 31.01802 | -103.21566 | 34840 ft | 515 kts | 118° |
| 2026-05-07 01:56 | 30.99614 | -103.13604 | 34836 ft | 516 kts | 118° |
| 2026-05-07 01:56 | 30.97420 | -103.05641 | 34839 ft | 517 kts | 118° |
| 2026-05-07 01:57 | 30.95215 | -102.97657 | 34847 ft | 518 kts | 118° |
| 2026-05-07 01:57 | 30.93127 | -102.89598 | 34975 ft | 521 kts | 116° |
| 2026-05-07 01:58 | 30.91142 | -102.81476 | 34971 ft | 522 kts | 116° |
| 2026-05-07 01:58 | 30.89148 | -102.73350 | 34929 ft | 521 kts | 116° |
| 2026-05-07 01:59 | 30.87136 | -102.65268 | 34908 ft | 519 kts | 116° |
| 2026-05-07 01:59 | 30.85112 | -102.57218 | 34877 ft | 517 kts | 116° |
| 2026-05-07 02:00 | 30.83087 | -102.49197 | 34860 ft | 516 kts | 116° |
| 2026-05-07 02:00 | 30.81061 | -102.41190 | 34879 ft | 516 kts | 116° |
| 2026-05-07 02:01 | 30.79037 | -102.33202 | 34861 ft | 514 kts | 116° |
| 2026-05-07 02:01 | 30.77014 | -102.25241 | 34865 ft | 513 kts | 116° |
| 2026-05-07 02:02 | 30.74989 | -102.17303 | 34874 ft | 512 kts | 116° |
| 2026-05-07 02:02 | 30.72961 | -102.09371 | 34881 ft | 511 kts | 116° |
| 2026-05-07 02:03 | 30.70946 | -102.01508 | 34892 ft | 511 kts | 116° |
| 2026-05-07 02:03 | 30.68899 | -101.93550 | 34841 ft | 511 kts | 116° |
| 2026-05-07 02:04 | 30.66878 | -101.85708 | 34897 ft | 510 kts | 116° |
| 2026-05-07 02:04 | 30.64837 | -101.77816 | 34906 ft | 510 kts | 116° |
| 2026-05-07 02:05 | 30.62791 | -101.69921 | 34911 ft | 510 kts | 116° |
| 2026-05-07 02:05 | 30.60741 | -101.62035 | 34912 ft | 510 kts | 116° |
| 2026-05-07 02:06 | 30.58687 | -101.54153 | 34907 ft | 510 kts | 116° |
| 2026-05-07 02:06 | 30.56632 | -101.46285 | 34917 ft | 509 kts | 116° |
| 2026-05-07 02:07 | 30.54574 | -101.38434 | 34917 ft | 509 kts | 116° |
| 2026-05-07 02:07 | 30.51478 | -101.26662 | 34922 ft | 508 kts | 116° |
| 2026-05-07 02:08 | 30.49410 | -101.18823 | 34968 ft | 508 kts | 116° |
| 2026-05-07 02:08 | 30.47338 | -101.10994 | 34926 ft | 508 kts | 116° |
| 2026-05-07 02:09 | 30.45263 | -101.03169 | 34932 ft | 508 kts | 116° |
| 2026-05-07 02:09 | 30.43180 | -100.95341 | 34957 ft | 509 kts | 116° |
| 2026-05-07 02:10 | 30.41080 | -100.87474 | 34607 ft | 516 kts | 116° |
| 2026-05-07 02:10 | 30.40017 | -100.83506 | 34071 ft | 516 kts | 115° |
| 2026-05-07 02:10 | 30.38957 | -100.79541 | 33433 ft | 516 kts | 115° |
| 2026-05-07 02:11 | 30.37900 | -100.75584 | 32980 ft | 511 kts | 115° |
| 2026-05-07 02:11 | 30.36855 | -100.71671 | 32528 ft | 507 kts | 115° |
| 2026-05-07 02:11 | 30.35818 | -100.67793 | 32087 ft | 502 kts | 115° |
| 2026-05-07 02:11 | 30.34786 | -100.63952 | 31653 ft | 498 kts | 115° |
| 2026-05-07 02:12 | 30.33760 | -100.60139 | 31220 ft | 494 kts | 116° |
| 2026-05-07 02:12 | 30.32742 | -100.56365 | 30769 ft | 490 kts | 116° |
| 2026-05-07 02:12 | 30.31729 | -100.52617 | 30348 ft | 486 kts | 116° |
| 2026-05-07 02:12 | 30.30720 | -100.48890 | 29899 ft | 483 kts | 116° |
| 2026-05-07 02:13 | 30.29720 | -100.45197 | 29394 ft | 480 kts | 115° |
| 2026-05-07 02:13 | 30.28726 | -100.41532 | 28915 ft | 475 kts | 115° |
| 2026-05-07 02:13 | 30.27740 | -100.37897 | 28465 ft | 471 kts | 115° |
| 2026-05-07 02:13 | 30.26774 | -100.34341 | 28034 ft | 467 kts | 115° |
| 2026-05-07 02:14 | 30.25789 | -100.30723 | 27600 ft | 463 kts | 115° |
| 2026-05-07 02:14 | 30.24838 | -100.27231 | 27175 ft | 460 kts | 115° |
| 2026-05-07 02:14 | 30.23878 | -100.23714 | 26752 ft | 457 kts | 115° |
| 2026-05-07 02:14 | 30.22926 | -100.20226 | 26338 ft | 454 kts | 115° |
| 2026-05-07 02:15 | 30.21976 | -100.16756 | 25914 ft | 451 kts | 115° |
| 2026-05-07 02:15 | 30.21031 | -100.13305 | 25499 ft | 449 kts | 114° |
| 2026-05-07 02:15 | 30.20091 | -100.09873 | 25090 ft | 447 kts | 114° |
| 2026-05-07 02:15 | 30.19153 | -100.06455 | 24663 ft | 446 kts | 114° |
| 2026-05-07 02:16 | 30.18218 | -100.03049 | 24253 ft | 444 kts | 114° |
| 2026-05-07 02:16 | 30.17280 | -99.99659 | 23825 ft | 442 kts | 115° |
| 2026-05-07 02:16 | 30.16273 | -99.96316 | 23411 ft | 439 kts | 116° |
| 2026-05-07 02:16 | 30.15218 | -99.93010 | 22948 ft | 437 kts | 116° |
| 2026-05-07 02:17 | 30.14157 | -99.89740 | 22511 ft | 434 kts | 117° |
| 2026-05-07 02:17 | 30.13101 | -99.86487 | 22112 ft | 430 kts | 116° |
| 2026-05-07 02:17 | 30.12060 | -99.83258 | 21713 ft | 427 kts | 116° |
| 2026-05-07 02:17 | 30.11031 | -99.80052 | 21317 ft | 424 kts | 116° |
| 2026-05-07 02:18 | 30.10013 | -99.76866 | 20930 ft | 421 kts | 116° |
| 2026-05-07 02:18 | 30.09004 | -99.73700 | 20542 ft | 419 kts | 116° |
| 2026-05-07 02:18 | 30.08001 | -99.70552 | 20160 ft | 416 kts | 116° |
| 2026-05-07 02:18 | 30.07004 | -99.67425 | 19782 ft | 414 kts | 116° |
| 2026-05-07 02:19 | 30.06012 | -99.64317 | 19401 ft | 412 kts | 116° |
| 2026-05-07 02:19 | 30.05025 | -99.61226 | 19023 ft | 409 kts | 116° |
| 2026-05-07 02:19 | 30.04042 | -99.58152 | 18620 ft | 407 kts | 115° |
| 2026-05-07 02:19 | 30.03064 | -99.55098 | 18258 ft | 404 kts | 115° |
| 2026-05-07 02:20 | 30.02092 | -99.52065 | 17831 ft | 402 kts | 115° |
| 2026-05-07 02:20 | 30.01123 | -99.49043 | 17432 ft | 399 kts | 115° |
| 2026-05-07 02:20 | 30.00164 | -99.46053 | 17044 ft | 396 kts | 115° |
| 2026-05-07 02:20 | 29.99213 | -99.43090 | 16684 ft | 392 kts | 115° |
| 2026-05-07 02:21 | 29.98267 | -99.40148 | 16317 ft | 389 kts | 115° |
| 2026-05-07 02:21 | 29.97328 | -99.37232 | 15993 ft | 386 kts | 115° |
| 2026-05-07 02:21 | 29.96397 | -99.34342 | 15645 ft | 383 kts | 115° |
| 2026-05-07 02:21 | 29.95472 | -99.31473 | 15313 ft | 381 kts | 115° |
| 2026-05-07 02:22 | 29.94564 | -99.28658 | 14976 ft | 378 kts | 115° |
| 2026-05-07 02:22 | 29.93639 | -99.25792 | 14635 ft | 376 kts | 114° |
| 2026-05-07 02:22 | 29.92741 | -99.23014 | 14302 ft | 373 kts | 114° |
| 2026-05-07 02:22 | 29.91825 | -99.20223 | 13956 ft | 371 kts | 116° |
| 2026-05-07 02:23 | 29.90835 | -99.17486 | 13595 ft | 369 kts | 117° |
| 2026-05-07 02:23 | 29.89821 | -99.14785 | 13226 ft | 366 kts | 117° |
| 2026-05-07 02:23 | 29.88815 | -99.12096 | 12882 ft | 364 kts | 117° |
| 2026-05-07 02:23 | 29.87827 | -99.09426 | 12532 ft | 361 kts | 117° |
| 2026-05-07 02:24 | 29.86850 | -99.06770 | 12195 ft | 359 kts | 117° |
| 2026-05-07 02:24 | 29.85883 | -99.04136 | 11851 ft | 356 kts | 117° |
| 2026-05-07 02:24 | 29.84921 | -99.01521 | 11521 ft | 353 kts | 116° |
| 2026-05-07 02:24 | 29.83966 | -98.98926 | 11187 ft | 351 kts | 116° |
| 2026-05-07 02:25 | 29.82857 | -98.96455 | 10833 ft | 344 kts | 131° |
| 2026-05-07 02:25 | 29.81323 | -98.94387 | 10529 ft | 337 kts | 137° |
| 2026-05-07 02:25 | 29.79745 | -98.92404 | 10206 ft | 335 kts | 137° |
| 2026-05-07 02:25 | 29.78177 | -98.90435 | 9927 ft | 332 kts | 136° |
| 2026-05-07 02:26 | 29.76662 | -98.88508 | 9920 ft | 318 kts | 136° |
| 2026-05-07 02:26 | 29.75211 | -98.86647 | 9873 ft | 307 kts | 136° |
| 2026-05-07 02:26 | 29.73805 | -98.84838 | 9675 ft | 300 kts | 136° |
| 2026-05-07 02:26 | 29.72424 | -98.83057 | 9300 ft | 298 kts | 136° |
| 2026-05-07 02:27 | 29.71049 | -98.81284 | 8897 ft | 296 kts | 135° |
| 2026-05-07 02:27 | 29.69682 | -98.79520 | 8534 ft | 294 kts | 135° |
| 2026-05-07 02:27 | 29.68315 | -98.77791 | 8192 ft | 291 kts | 136° |
| 2026-05-07 02:27 | 29.66912 | -98.76115 | 7866 ft | 291 kts | 136° |
| 2026-05-07 02:28 | 29.65512 | -98.74456 | 7687 ft | 287 kts | 136° |
| 2026-05-07 02:28 | 29.64109 | -98.72870 | 7523 ft | 279 kts | 146° |
| 2026-05-07 02:28 | 29.62417 | -98.71946 | 7335 ft | 265 kts | 166° |
| 2026-05-07 02:28 | 29.60668 | -98.71292 | 6997 ft | 264 kts | 165° |
| 2026-05-07 02:29 | 29.58913 | -98.70619 | 6656 ft | 267 kts | 164° |
| 2026-05-07 02:29 | 29.57171 | -98.69943 | 6536 ft | 260 kts | 164° |
| 2026-05-07 02:29 | 29.55489 | -98.69287 | 6463 ft | 251 kts | 163° |
| 2026-05-07 02:29 | 29.53857 | -98.68650 | 6339 ft | 245 kts | 164° |
| 2026-05-07 02:30 | 29.52248 | -98.68023 | 6100 ft | 243 kts | 163° |
| 2026-05-07 02:30 | 29.50649 | -98.67400 | 5997 ft | 244 kts | 163° |
| 2026-05-07 02:30 | 29.49033 | -98.66771 | 5959 ft | 247 kts | 163° |
| 2026-05-07 02:30 | 29.47411 | -98.66144 | 5941 ft | 244 kts | 166° |
| 2026-05-07 02:31 | 29.45766 | -98.66049 | 5935 ft | 234 kts | 200° |
| 2026-05-07 02:31 | 29.44347 | -98.66897 | 5952 ft | 230 kts | 219° |
| 2026-05-07 02:31 | 29.43119 | -98.68058 | 5960 ft | 233 kts | 223° |
| 2026-05-07 02:31 | 29.41871 | -98.69311 | 5942 ft | 237 kts | 222° |
| 2026-05-07 02:32 | 29.40376 | -98.70162 | 5643 ft | 248 kts | 188° |
| 2026-05-07 02:32 | 29.38707 | -98.69905 | 5407 ft | 248 kts | 156° |
| 2026-05-07 02:32 | 29.37379 | -98.68700 | 5194 ft | 243 kts | 125° |
| 2026-05-07 02:32 | 29.36767 | -98.66943 | 4907 ft | 238 kts | 95° |
| 2026-05-07 02:33 | 29.36966 | -98.65112 | 4659 ft | 229 kts | 68° |
| 2026-05-07 02:33 | 29.37733 | -98.63555 | 4435 ft | 220 kts | 54° |
| 2026-05-07 02:33 | 29.38621 | -98.62159 | 4189 ft | 214 kts | 53° |
| 2026-05-07 02:33 | 29.39492 | -98.60809 | 3960 ft | 207 kts | 53° |
| 2026-05-07 02:34 | 29.40334 | -98.59495 | 3734 ft | 202 kts | 53° |
| 2026-05-07 02:34 | 29.41136 | -98.58235 | 3522 ft | 188 kts | 53° |
| 2026-05-07 02:34 | 29.41991 | -98.57179 | 3313 ft | 174 kts | 41° |
| 2026-05-07 02:34 | 29.42892 | -98.56288 | 3160 ft | 168 kts | 41° |
| 2026-05-07 02:35 | 29.43792 | -98.55406 | 2972 ft | 172 kts | 41° |
| 2026-05-07 02:35 | 29.44696 | -98.54516 | 2758 ft | 167 kts | 40° |
| 2026-05-07 02:35 | 29.45275 | -98.53946 | 2614 ft | 156 kts | 40° |
| 2026-05-07 02:35 | 29.46048 | -98.53183 | 2397 ft | 144 kts | 40° |
| 2026-05-07 02:36 | 29.46800 | -98.52441 | 2207 ft | 141 kts | 41° |
| 2026-05-07 02:36 | 29.47537 | -98.51714 | 2063 ft | 139 kts | 40° |
| 2026-05-07 02:36 | 29.48268 | -98.50992 | 1852 ft | 136 kts | 40° |
| 2026-05-07 02:36 | 29.48978 | -98.50293 | 1666 ft | 131 kts | 42° |
| 2026-05-07 02:37 | 29.49668 | -98.49610 | 1492 ft | 127 kts | 39° |
| 2026-05-07 02:37 | 29.50345 | -98.48934 | 1357 ft | 133 kts | 38° |
| 2026-05-07 02:37 | 29.51037 | -98.48247 | 1170 ft | 133 kts | 40° |
| 2026-05-07 02:37 | 29.51758 | -98.47551 | 1027 ft | 136 kts | 39° |
| 2026-05-07 02:38 | 29.52455 | -98.46857 | 820 ft | 125 kts | 38° |
| 2026-05-07 02:38 | 29.53040 | -98.46285 | 796 ft | 92 kts | 41° |
| 2026-05-07 02:38 | 29.53406 | -98.45924 | 797 ft | 47 kts | 41° |
| 2026-05-07 02:38 | 29.53564 | -98.45768 | 797 ft | 26 kts | 39° |
| 2026-05-07 02:39 | 29.53686 | -98.45688 | 797 ft | 11 kts | 347° |
| 2026-05-07 02:39 | 29.53737 | -98.45737 | 797 ft | 10 kts | 301° |
| 2026-05-07 02:39 | 29.53720 | -98.45804 | 797 ft | 9 kts | 224° |
| 2026-05-07 02:39 | 29.53672 | -98.45854 | 797 ft | 9 kts | 220° |
| 2026-05-07 02:40 | 29.53619 | -98.45905 | 797 ft | 11 kts | 220° |
| 2026-05-07 02:40 | 29.53555 | -98.45967 | 797 ft | 13 kts | 220° |
| 2026-05-07 02:40 | 29.53480 | -98.46042 | 797 ft | 15 kts | 221° |
| 2026-05-07 02:40 | 29.53395 | -98.46127 | 797 ft | 17 kts | 220° |
| 2026-05-07 02:41 | 29.53305 | -98.46214 | 797 ft | 17 kts | 220° |
| 2026-05-07 02:41 | 29.53219 | -98.46298 | 797 ft | 16 kts | 220° |
| 2026-05-07 02:41 | 29.53137 | -98.46380 | 797 ft | 15 kts | 221° |
| 2026-05-07 02:41 | 29.53058 | -98.46459 | 781 ft | 15 kts | 221° |
| 2026-05-07 02:42 | 29.52982 | -98.46533 | 795 ft | 14 kts | 218° |
| 2026-05-07 02:42 | 29.52909 | -98.46604 | 795 ft | 13 kts | 221° |
| 2026-05-07 02:42 | 29.52839 | -98.46672 | 795 ft | 13 kts | 220° |
| 2026-05-07 02:42 | 29.52772 | -98.46737 | 795 ft | 12 kts | 220° |
| 2026-05-07 02:43 | 29.52712 | -98.46804 | 795 ft | 12 kts | 247° |
| 2026-05-07 02:43 | 29.52699 | -98.46892 | 795 ft | 5 kts | 272° |
| 2026-05-07 02:43 | 29.52717 | -98.46931 | 795 ft | 5 kts | 294° |
| 2026-05-07 02:43 | 29.52727 | -98.46957 | 795 ft | 0 kts | 294° |